createdAt,value
2018-11-03T00:02:00.402Z,12.70
2018-11-03T00:04:29.232Z,10.13
2018-11-03T00:06:58.103Z,8.87
2018-11-03T00:09:27.263Z,6.57
2018-11-03T00:11:56.190Z,15.17
2018-11-03T00:14:24.939Z,12.90
2018-11-03T00:16:53.964Z,8.90
2018-11-03T00:19:22.760Z,8.87
2018-11-03T00:21:51.966Z,15.90
2018-11-03T00:24:20.919Z,12.87
2018-11-03T00:26:49.664Z,11.43
2018-11-03T00:29:18.635Z,12.53
2018-11-03T00:31:47.580Z,11.53
2018-11-03T00:34:16.803Z,9.33
2018-11-03T00:36:45.464Z,7.40
2018-11-03T00:39:14.515Z,8.03
2018-11-03T00:41:43.434Z,7.83
2018-11-03T00:44:12.390Z,9.03
2018-11-03T00:46:41.260Z,9.83
2018-11-03T00:49:09.961Z,13.70
2018-11-03T00:51:41.931Z,12.30
2018-11-03T00:54:10.553Z,10.73
2018-11-03T00:56:39.189Z,8.70
2018-11-03T00:59:08.190Z,11.93
2018-11-03T01:01:36.938Z,9.70
2018-11-03T01:04:06.020Z,9.07
2018-11-03T01:06:34.579Z,9.63
2018-11-03T01:09:03.339Z,7.17
2018-11-03T01:11:32.178Z,9.50
2018-11-03T01:14:01.322Z,10.13
2018-11-03T01:16:30.202Z,10.53
2018-11-03T01:18:58.794Z,10.20
2018-11-03T01:21:27.949Z,6.27
2018-11-03T01:23:57.050Z,11.07
2018-11-03T01:26:25.973Z,7.20
2018-11-03T01:28:54.973Z,6.93
2018-11-03T01:31:24.150Z,6.23
2018-11-03T01:33:52.770Z,8.67
2018-11-03T01:36:21.520Z,9.27
2018-11-03T01:38:50.329Z,9.00
2018-11-03T01:41:19.342Z,8.60
2018-11-03T01:43:47.987Z,8.43
2018-11-03T01:46:17.010Z,6.97
2018-11-03T01:48:45.908Z,7.97
2018-11-03T01:51:14.734Z,6.83
2018-11-03T01:53:43.640Z,7.80
2018-11-03T01:56:12.215Z,8.33
2018-11-03T01:58:40.950Z,7.57
2018-11-03T02:01:09.618Z,8.27
2018-11-03T02:03:38.615Z,7.47
2018-11-03T02:06:07.505Z,10.70
2018-11-03T02:08:36.358Z,7.43
2018-11-03T02:11:05.260Z,7.80
2018-11-03T02:13:33.895Z,8.03
2018-11-03T02:16:02.719Z,7.73
2018-11-03T02:18:31.555Z,8.83
2018-11-03T02:21:00.149Z,11.50
2018-11-03T02:23:28.721Z,10.43
2018-11-03T02:25:57.390Z,8.97
2018-11-03T02:28:26.135Z,8.57
2018-11-03T02:30:54.780Z,8.33
2018-11-03T02:33:23.566Z,9.63
2018-11-03T02:35:52.238Z,8.80
2018-11-03T02:38:20.968Z,12.00
2018-11-03T02:40:49.745Z,10.40
2018-11-03T02:43:18.735Z,8.33
2018-11-03T02:45:47.369Z,11.37
2018-11-03T02:48:16.202Z,10.43
2018-11-03T02:50:44.987Z,6.97
2018-11-03T02:53:14.136Z,7.93
2018-11-03T02:55:42.771Z,8.00
2018-11-03T02:58:11.529Z,11.20
2018-11-03T03:00:40.602Z,11.33
2018-11-03T03:03:09.454Z,8.53
2018-11-03T03:05:38.382Z,9.60
2018-11-03T03:08:07.303Z,11.03
2018-11-03T03:10:36.028Z,11.93
2018-11-03T03:13:05.017Z,11.30
2018-11-03T03:15:33.907Z,13.13
2018-11-03T03:18:02.821Z,12.73
2018-11-03T03:20:31.769Z,18.17
2018-11-03T03:23:00.368Z,12.53
2018-11-03T03:25:29.166Z,17.77
2018-11-03T03:27:58.028Z,15.13
2018-11-03T03:30:26.928Z,14.30
2018-11-03T03:32:55.580Z,15.50
2018-11-03T03:35:24.421Z,14.77
2018-11-03T03:37:53.248Z,18.23
2018-11-03T03:40:21.969Z,16.37
2018-11-03T03:42:51.022Z,20.00
2018-11-03T03:45:19.803Z,15.03
2018-11-03T03:47:48.475Z,20.90
2018-11-03T03:50:17.152Z,17.00
2018-11-03T03:52:46.380Z,15.57
2018-11-03T03:55:14.996Z,16.97
2018-11-03T03:57:43.921Z,21.00
2018-11-03T04:00:13.109Z,20.60
2018-11-03T04:02:42.066Z,16.70
2018-11-03T04:05:10.956Z,18.90
2018-11-03T04:07:39.815Z,23.93
2018-11-03T04:10:09.391Z,16.23
2018-11-03T04:12:38.332Z,20.53
2018-11-03T04:15:07.545Z,17.17
2018-11-03T04:17:36.490Z,18.17
2018-11-03T04:20:06.260Z,15.93
2018-11-03T04:22:35.108Z,16.30
2018-11-03T04:25:04.181Z,14.83
2018-11-03T04:27:32.859Z,19.63
2018-11-03T04:30:01.576Z,15.87
2018-11-03T04:32:30.419Z,14.13
2018-11-03T04:34:59.313Z,17.53
2018-11-03T04:37:28.416Z,17.33
2018-11-03T04:39:57.184Z,15.63
2018-11-03T04:42:26.016Z,16.77
2018-11-03T04:44:54.705Z,16.00
2018-11-03T04:47:23.735Z,12.87
2018-11-03T04:49:52.642Z,16.17
2018-11-03T04:52:21.583Z,14.47
2018-11-03T04:54:50.559Z,13.67
2018-11-03T04:57:19.289Z,15.37
2018-11-03T04:59:48.048Z,12.93
2018-11-03T05:02:16.822Z,14.23
2018-11-03T05:04:45.760Z,15.40
2018-11-03T05:07:14.701Z,13.87
2018-11-03T05:09:43.846Z,15.90
2018-11-03T05:12:13.035Z,14.73
2018-11-03T05:14:41.931Z,16.57
2018-11-03T05:17:10.793Z,11.03
2018-11-03T05:19:39.413Z,12.37
2018-11-03T05:22:08.138Z,14.60
2018-11-03T05:24:37.096Z,17.40
2018-11-03T05:27:05.764Z,15.23
2018-11-03T05:29:34.460Z,12.77
2018-11-03T05:32:03.476Z,14.73
2018-11-03T05:34:33.155Z,13.90
2018-11-03T05:37:01.930Z,14.73
2018-11-03T05:39:30.795Z,15.47
2018-11-03T05:41:59.879Z,19.13
2018-11-03T05:44:28.606Z,13.60
2018-11-03T05:46:57.549Z,15.03
2018-11-03T05:49:26.341Z,13.80
2018-11-03T05:51:55.296Z,16.30
2018-11-03T05:54:24.670Z,16.10
2018-11-03T05:56:53.669Z,17.30
2018-11-03T05:59:22.722Z,15.33
2018-11-03T06:01:51.519Z,19.43
2018-11-03T06:04:20.501Z,17.20
2018-11-03T06:06:49.337Z,14.27
2018-11-03T06:09:17.969Z,15.93
2018-11-03T06:11:46.710Z,15.57
2018-11-03T06:14:15.420Z,15.97
2018-11-03T06:16:44.251Z,16.17
2018-11-03T06:19:12.976Z,14.67
2018-11-03T06:21:41.913Z,13.00
2018-11-03T06:24:10.571Z,17.80
2018-11-03T06:26:39.613Z,15.03
2018-11-03T06:29:08.399Z,16.30
2018-11-03T06:31:37.125Z,17.17
2018-11-03T06:34:05.949Z,16.67
2018-11-03T06:36:34.721Z,14.30
2018-11-03T06:39:03.759Z,13.77
2018-11-03T06:41:32.334Z,13.80
2018-11-03T06:44:01.361Z,13.30
2018-11-03T06:46:30.417Z,17.20
2018-11-03T06:49:04.522Z,16.23
2018-11-03T06:51:33.189Z,13.37
2018-11-03T06:54:03.018Z,15.97
2018-11-03T06:56:32.802Z,14.20
2018-11-03T06:59:01.434Z,14.80
2018-11-03T07:01:30.269Z,16.70
2018-11-03T07:03:59.400Z,13.33
2018-11-03T07:06:28.031Z,14.97
2018-11-03T07:08:56.671Z,16.10
2018-11-03T07:11:25.684Z,15.23
2018-11-03T07:13:54.716Z,17.87
2018-11-03T07:16:23.414Z,15.23
2018-11-03T07:18:52.420Z,14.13
2018-11-03T07:21:21.079Z,18.17
2018-11-03T07:23:49.970Z,18.37
2018-11-03T07:26:18.908Z,22.07
2018-11-03T07:28:47.839Z,19.77
2018-11-03T07:31:16.869Z,19.47
2018-11-03T07:33:45.599Z,20.47
2018-11-03T07:36:14.512Z,21.50
2018-11-03T07:38:43.601Z,34.53
2018-11-03T07:41:12.879Z,27.43
2018-11-03T07:43:41.541Z,22.87
2018-11-03T07:46:10.405Z,22.03
2018-11-03T07:48:39.313Z,23.37
2018-11-03T07:51:08.186Z,21.60
2018-11-03T07:53:36.985Z,21.50
2018-11-03T07:56:06.150Z,19.20
2018-11-03T07:58:35.190Z,16.73
2018-11-03T08:01:04.115Z,20.53
2018-11-03T08:03:32.973Z,20.47
2018-11-03T08:06:01.876Z,22.00
2018-11-03T08:08:30.791Z,21.70
2018-11-03T08:10:59.498Z,20.33
2018-11-03T08:13:28.405Z,31.67
2018-11-03T08:15:57.480Z,58.93
2018-11-03T08:18:26.375Z,33.63
2018-11-03T08:20:55.209Z,27.23
2018-11-03T08:23:24.205Z,26.23
2018-11-03T08:25:53.073Z,22.73
2018-11-03T08:28:21.811Z,21.50
2018-11-03T08:30:50.740Z,17.27
2018-11-03T08:33:19.961Z,16.70
2018-11-03T08:35:48.749Z,17.47
2018-11-03T08:38:17.514Z,18.97
2018-11-03T08:40:46.436Z,19.60
2018-11-03T08:43:15.196Z,16.50
2018-11-03T08:45:44.126Z,14.43
2018-11-03T08:48:13.167Z,13.00
2018-11-03T08:50:42.222Z,15.27
2018-11-03T08:53:11.074Z,12.33
2018-11-03T08:55:39.954Z,12.93
2018-11-03T08:58:08.735Z,12.80
2018-11-03T09:00:37.690Z,10.17
2018-11-03T09:03:06.458Z,12.17
2018-11-03T09:05:35.254Z,11.53
2018-11-03T09:08:04.239Z,12.03
2018-11-03T09:10:33.144Z,11.63
2018-11-03T09:13:01.805Z,10.87
2018-11-03T09:15:30.725Z,10.57
2018-11-03T09:17:59.486Z,14.07
2018-11-03T09:20:28.137Z,10.30
2018-11-03T09:22:56.900Z,9.60
2018-11-03T09:25:25.826Z,14.67
2018-11-03T09:27:54.724Z,18.30
2018-11-03T09:30:23.380Z,19.53
2018-11-03T09:32:52.554Z,12.40
2018-11-03T09:35:21.585Z,13.70
2018-11-03T09:37:50.286Z,9.17
2018-11-03T09:40:19.330Z,13.03
2018-11-03T09:42:49.253Z,11.90
2018-11-03T09:45:17.924Z,14.93
2018-11-03T09:47:46.941Z,9.23
2018-11-03T09:50:16.354Z,12.73
2018-11-03T09:52:45.480Z,10.40
2018-11-03T09:55:16.111Z,11.50
2018-11-03T09:57:45.331Z,11.53
2018-11-03T10:00:17.469Z,9.07
2018-11-03T10:02:46.376Z,8.97
2018-11-03T10:05:15.794Z,5.90
2018-11-03T10:07:44.576Z,7.57
2018-11-03T10:10:14.904Z,7.17
2018-11-03T10:12:43.934Z,9.63
2018-11-03T10:15:14.321Z,8.87
2018-11-03T10:17:43.641Z,5.87
2018-11-03T10:20:12.701Z,6.40
2018-11-03T10:22:41.913Z,8.23
2018-11-03T10:25:14.298Z,7.43
2018-11-03T10:27:43.829Z,6.80
2018-11-03T10:30:13.666Z,8.00
2018-11-03T10:32:42.725Z,6.63
2018-11-03T10:35:12.537Z,12.67
2018-11-03T10:37:41.826Z,7.43
2018-11-03T10:40:13.146Z,6.20
2018-11-03T10:42:42.370Z,5.77
2018-11-03T10:45:12.449Z,6.30
2018-11-03T10:47:42.213Z,5.10
2018-11-03T10:50:15.960Z,6.67
2018-11-03T10:52:45.304Z,5.97
2018-11-03T10:55:15.739Z,10.00
2018-11-03T10:57:44.603Z,8.73
2018-11-03T11:00:21.075Z,10.70
2018-11-03T11:02:55.055Z,10.37
2018-11-03T11:05:29.136Z,7.00
2018-11-03T11:08:02.950Z,8.13
2018-11-03T11:10:37.034Z,5.50
2018-11-03T11:13:09.211Z,7.63
2018-11-03T11:15:38.116Z,5.17
2018-11-03T11:18:06.885Z,4.20
2018-11-03T11:20:35.676Z,7.00
2018-11-03T11:23:04.313Z,7.87
2018-11-03T11:25:33.296Z,7.47
2018-11-03T11:28:02.260Z,6.58
2018-11-03T11:30:35.870Z,5.37
2018-11-03T11:33:05.820Z,6.65
2018-11-03T11:35:35.015Z,4.75
2018-11-03T11:38:03.966Z,5.30
2018-11-03T11:40:32.885Z,5.10
2018-11-03T11:43:01.834Z,6.05
2018-11-03T11:45:30.704Z,4.78
2018-11-03T11:47:59.792Z,4.22
2018-11-03T11:50:28.755Z,5.45
2018-11-03T11:52:57.511Z,3.10
2018-11-03T11:55:26.474Z,3.25
2018-11-03T11:57:55.360Z,2.70
2018-11-03T12:00:24.203Z,2.92
2018-11-03T12:02:53.112Z,2.95
2018-11-03T12:05:21.846Z,2.65
2018-11-03T12:07:50.649Z,3.35
2018-11-03T12:10:19.666Z,3.40
2018-11-03T12:12:48.567Z,2.08
2018-11-03T12:15:17.985Z,2.87
2018-11-03T12:17:47.015Z,3.60
2018-11-03T12:20:16.202Z,2.08
2018-11-03T12:22:45.197Z,2.47
2018-11-03T12:25:14.040Z,4.40
2018-11-03T12:27:42.850Z,2.75
2018-11-03T12:30:13.945Z,2.47
2018-11-03T12:32:42.820Z,1.80
2018-11-03T12:35:11.833Z,3.12
2018-11-03T12:37:40.918Z,2.45
2018-11-03T12:40:12.146Z,3.00
2018-11-03T12:42:41.211Z,4.08
2018-11-03T12:45:10.636Z,3.37
2018-11-03T12:47:39.818Z,3.00
2018-11-03T12:50:13.876Z,2.98
2018-11-03T12:52:42.901Z,3.37
2018-11-03T12:55:11.865Z,4.30
2018-11-03T12:57:41.806Z,3.12
2018-11-03T13:00:13.015Z,3.30
2018-11-03T13:02:42.850Z,2.77
2018-11-03T13:05:11.714Z,2.85
2018-11-03T13:07:42.007Z,3.37
2018-11-03T13:10:11.491Z,2.05
2018-11-03T13:12:40.943Z,4.03
2018-11-03T13:15:10.939Z,2.80
2018-11-03T13:17:40.010Z,2.30
2018-11-03T13:20:10.816Z,2.42
2018-11-03T13:22:40.097Z,2.55
2018-11-03T13:25:09.507Z,2.47
2018-11-03T13:27:38.565Z,2.58
2018-11-03T13:30:09.082Z,1.32
2018-11-03T13:32:38.386Z,1.90
2018-11-03T13:35:08.105Z,3.17
2018-11-03T13:37:36.914Z,1.87
2018-11-03T13:40:06.192Z,2.87
2018-11-03T13:42:35.065Z,3.40
2018-11-03T13:45:03.877Z,3.65
2018-11-03T13:47:32.817Z,2.30
2018-11-03T13:50:01.645Z,2.25
2018-11-03T13:52:30.521Z,0.98
2018-11-03T13:54:59.295Z,1.27
2018-11-03T13:57:28.175Z,1.82
2018-11-03T13:59:57.061Z,1.87
2018-11-03T14:02:26.045Z,3.20
2018-11-03T14:04:54.704Z,0.80
2018-11-03T14:07:23.513Z,0.78
2018-11-03T14:09:52.412Z,1.52
2018-11-03T14:12:21.232Z,1.70
2018-11-03T14:14:50.342Z,1.60
2018-11-03T14:17:19.032Z,2.40
2018-11-03T14:19:47.716Z,1.62
2018-11-03T14:22:16.406Z,2.90
2018-11-03T14:24:45.270Z,1.42
2018-11-03T14:27:14.207Z,1.62
2018-11-03T14:29:43.266Z,1.90
2018-11-03T14:32:12.331Z,5.80
2018-11-03T14:34:41.253Z,2.70
2018-11-03T14:37:10.161Z,2.10
2018-11-03T14:39:39.169Z,2.22
2018-11-03T14:42:08.083Z,2.90
2018-11-03T14:44:37.074Z,3.15
2018-11-03T14:47:05.746Z,5.28
2018-11-03T14:49:34.793Z,3.42
2018-11-03T14:52:03.758Z,4.87
2018-11-03T14:54:32.387Z,3.67
2018-11-03T14:57:01.009Z,3.70
2018-11-03T14:59:30.095Z,5.20
2018-11-03T15:01:58.837Z,4.50
2018-11-03T15:04:27.700Z,4.47
2018-11-03T15:06:56.639Z,4.33
2018-11-03T15:09:25.566Z,1.97
2018-11-03T15:11:54.418Z,1.43
2018-11-03T15:14:23.340Z,2.47
2018-11-03T15:16:51.881Z,2.43
2018-11-03T15:19:20.825Z,2.27
2018-11-03T15:21:49.706Z,5.07
2018-11-03T15:24:22.671Z,2.83
2018-11-03T15:26:51.616Z,4.07
2018-11-03T15:29:20.389Z,2.57
2018-11-03T15:31:49.190Z,6.73
2018-11-03T15:34:18.101Z,3.90
2018-11-03T15:36:46.865Z,4.17
2018-11-03T15:39:15.772Z,6.20
2018-11-03T15:41:45.160Z,3.47
2018-11-03T15:44:14.294Z,2.93
2018-11-03T15:46:43.500Z,3.20
2018-11-03T15:49:12.685Z,4.60
2018-11-03T15:51:41.692Z,4.60
2018-11-03T15:54:10.760Z,12.40
2018-11-03T15:56:39.652Z,6.80
2018-11-03T15:59:08.595Z,4.40
2018-11-03T16:01:37.481Z,5.70
2018-11-03T16:04:06.140Z,4.80
2018-11-03T16:06:35.209Z,5.90
2018-11-03T16:09:04.918Z,9.30
2018-11-03T16:11:33.805Z,5.93
2018-11-03T16:14:02.901Z,7.93
2018-11-03T16:16:31.745Z,5.73
2018-11-03T16:19:00.484Z,7.37
2018-11-03T16:21:29.568Z,9.47
2018-11-03T16:23:58.507Z,10.37
2018-11-03T16:26:27.107Z,8.07
2018-11-03T16:28:56.021Z,6.70
2018-11-03T16:31:24.856Z,6.93
2018-11-03T16:33:53.778Z,5.87
2018-11-03T16:36:22.690Z,9.63
2018-11-03T16:38:51.478Z,7.87
2018-11-03T16:41:20.554Z,10.30
2018-11-03T16:43:49.741Z,7.30
2018-11-03T16:46:18.604Z,7.47
2018-11-03T16:48:47.292Z,5.80
2018-11-03T16:51:16.181Z,12.03
2018-11-03T16:53:45.036Z,8.63
2018-11-03T16:56:13.806Z,10.03
2018-11-03T16:58:43.109Z,8.53
2018-11-03T17:01:11.785Z,8.67
2018-11-03T17:03:40.681Z,8.67
2018-11-03T17:06:09.372Z,7.93
2018-11-03T17:08:38.016Z,7.37
2018-11-03T17:11:06.741Z,11.07
2018-11-03T17:13:35.756Z,10.63
2018-11-03T17:16:04.619Z,11.87
2018-11-03T17:18:33.519Z,10.03
2018-11-03T17:21:02.238Z,10.67
2018-11-03T17:23:31.509Z,11.67
2018-11-03T17:26:00.396Z,11.93
2018-11-03T17:28:29.301Z,13.17
2018-11-03T17:30:57.890Z,10.53
2018-11-03T17:33:26.995Z,9.13
2018-11-03T17:35:56.020Z,10.50
2018-11-03T17:38:24.920Z,17.67
2018-11-03T17:40:53.948Z,10.27
2018-11-03T17:43:23.152Z,11.73
2018-11-03T17:45:52.016Z,13.43
2018-11-03T17:48:20.631Z,18.67
2018-11-03T17:50:49.420Z,11.63
2018-11-03T17:53:18.197Z,11.53
2018-11-03T17:55:46.891Z,11.03
2018-11-03T17:58:15.769Z,9.03
2018-11-03T18:00:44.851Z,11.93
2018-11-03T18:03:13.742Z,13.07
2018-11-03T18:05:42.593Z,11.73
2018-11-03T18:08:11.592Z,12.87
2018-11-03T18:10:40.469Z,10.77
2018-11-03T18:13:09.361Z,14.40
2018-11-03T18:15:38.037Z,12.00
2018-11-03T18:18:07.042Z,15.40
2018-11-03T18:20:35.715Z,22.27
2018-11-03T18:23:04.831Z,20.43
2018-11-03T18:25:33.741Z,18.47
2018-11-03T18:28:02.652Z,19.70
2018-11-03T18:30:31.711Z,18.73
2018-11-03T18:33:00.568Z,22.60
2018-11-03T18:35:29.398Z,16.37
2018-11-03T18:37:58.541Z,15.50
2018-11-03T18:40:27.582Z,19.53
2018-11-03T18:42:56.632Z,15.90
2018-11-03T18:45:25.492Z,13.90
2018-11-03T18:47:54.222Z,13.93
2018-11-03T18:50:23.038Z,17.13
2018-11-03T18:52:51.933Z,14.50
2018-11-03T18:55:20.894Z,19.87
2018-11-03T18:57:49.652Z,16.80
2018-11-03T19:00:18.506Z,18.30
2018-11-03T19:02:47.120Z,16.97
2018-11-03T19:05:16.097Z,19.53
2018-11-03T19:07:45.003Z,13.03
2018-11-03T19:10:14.130Z,11.17
2018-11-03T19:12:43.020Z,13.97
2018-11-03T19:15:11.818Z,11.13
2018-11-03T19:17:41.104Z,15.67
2018-11-03T19:20:12.528Z,17.53
2018-11-03T19:22:41.612Z,18.67
2018-11-03T19:25:11.848Z,15.17
2018-11-03T19:27:41.191Z,17.60
2018-11-03T19:30:11.466Z,18.73
2018-11-03T19:32:41.632Z,19.60
2018-11-03T19:35:10.755Z,15.57
2018-11-03T19:37:40.155Z,14.80
2018-11-03T19:40:10.236Z,15.10
2018-11-03T19:42:39.697Z,17.53
2018-11-03T19:45:08.846Z,15.67
2018-11-03T19:47:37.873Z,19.47
2018-11-03T19:50:07.656Z,19.90
2018-11-03T19:52:36.532Z,19.10
2018-11-03T19:55:05.532Z,14.93
2018-11-03T19:57:34.548Z,15.90
2018-11-03T20:00:03.627Z,16.10
2018-11-03T20:02:32.970Z,16.87
2018-11-03T20:05:01.914Z,13.60
2018-11-03T20:07:31.173Z,13.80
2018-11-03T20:10:00.107Z,16.27
2018-11-03T20:12:29.214Z,16.53
2018-11-03T20:14:58.049Z,17.47
2018-11-03T20:17:27.030Z,17.33
2018-11-03T20:19:56.386Z,17.40
2018-11-03T20:22:25.255Z,14.20
2018-11-03T20:24:54.322Z,18.43
2018-11-03T20:27:23.199Z,24.10
2018-11-03T20:29:52.401Z,25.57
2018-11-03T20:32:21.479Z,25.23
2018-11-03T20:34:50.356Z,21.60
2018-11-03T20:37:19.029Z,19.70
2018-11-03T20:39:48.063Z,20.30
2018-11-03T20:42:16.880Z,19.80
2018-11-03T20:44:46.147Z,17.23
2018-11-03T20:47:14.851Z,27.80
2018-11-03T20:49:43.795Z,22.13
2018-11-03T20:52:12.867Z,21.00
2018-11-03T20:54:41.757Z,19.50
2018-11-03T20:57:10.743Z,19.53
2018-11-03T20:59:39.617Z,21.53
2018-11-03T21:02:08.709Z,30.67
2018-11-03T21:04:37.686Z,27.40
2018-11-03T21:07:06.641Z,26.80
2018-11-03T21:09:35.441Z,28.93
2018-11-03T21:12:04.193Z,32.33
2018-11-03T21:14:32.907Z,20.50
2018-11-03T21:17:01.802Z,25.70
2018-11-03T21:19:30.831Z,21.93
2018-11-03T21:22:00.212Z,18.33
2018-11-03T21:24:28.946Z,18.97
2018-11-03T21:26:57.836Z,17.07
2018-11-03T21:29:26.806Z,15.33
2018-11-03T21:31:55.670Z,14.87
2018-11-03T21:34:24.302Z,23.87
2018-11-03T21:36:52.981Z,20.67
2018-11-03T21:39:21.642Z,17.97
2018-11-03T21:41:50.410Z,23.47
2018-11-03T21:44:19.274Z,18.70
2018-11-03T21:46:48.048Z,17.63
2018-11-03T21:49:16.820Z,18.13
2018-11-03T21:51:45.927Z,18.70
2018-11-03T21:54:14.963Z,18.47
2018-11-03T21:56:44.173Z,18.23
2018-11-03T21:59:13.062Z,19.03
2018-11-03T22:01:41.909Z,17.03
2018-11-03T22:04:10.816Z,21.07
2018-11-03T22:06:40.129Z,22.13
2018-11-03T22:09:11.082Z,18.90
2018-11-03T22:11:40.223Z,18.43
2018-11-03T22:14:09.150Z,17.63
2018-11-03T22:16:38.021Z,19.07
2018-11-03T22:19:07.205Z,19.57
2018-11-03T22:21:36.177Z,17.27
2018-11-03T22:24:05.248Z,16.90
2018-11-03T22:26:34.202Z,16.70
2018-11-03T22:29:03.071Z,16.83
2018-11-03T22:31:32.012Z,17.27
2018-11-03T22:34:00.938Z,16.73
2018-11-03T22:36:30.007Z,15.97
2018-11-03T22:38:59.541Z,23.10
2018-11-03T22:41:28.414Z,18.13
2018-11-03T22:43:57.361Z,23.30
2018-11-03T22:46:26.605Z,25.57
2018-11-03T22:48:55.372Z,25.00
2018-11-03T22:51:24.212Z,23.00
2018-11-03T22:53:52.879Z,20.63
2018-11-03T22:56:21.750Z,24.57
2018-11-03T22:58:50.576Z,25.03
2018-11-03T23:01:19.540Z,22.70
2018-11-03T23:03:48.380Z,24.67
2018-11-03T23:06:17.188Z,23.53
2018-11-03T23:08:46.013Z,21.40
2018-11-03T23:11:15.007Z,25.37
2018-11-03T23:13:43.649Z,24.43
2018-11-03T23:16:12.432Z,27.77
2018-11-03T23:18:41.070Z,21.97
2018-11-03T23:21:10.176Z,26.80
2018-11-03T23:23:39.175Z,31.97
2018-11-03T23:26:07.772Z,29.60
2018-11-03T23:28:36.557Z,23.70
2018-11-03T23:31:05.792Z,22.77
2018-11-03T23:33:34.672Z,21.63
2018-11-03T23:36:03.405Z,25.60
2018-11-03T23:38:32.215Z,25.67
2018-11-03T23:41:01.151Z,28.60
2018-11-03T23:43:30.042Z,24.77
2018-11-03T23:45:58.915Z,31.00
2018-11-03T23:48:27.770Z,24.47
2018-11-03T23:50:56.367Z,26.10
2018-11-03T23:53:25.477Z,25.37
2018-11-03T23:55:54.307Z,25.13
2018-11-03T23:58:23.272Z,27.13
